sensor_id;sensor_type;location;lat;lon;timestamp;pressure;altitude;pressure_sealevel;temperature;humidity
76337;BME280;65157;50.082;18.178;2023-06-26T00:02:07;99299.96;;;16.47;69.20
76337;BME280;65157;50.082;18.178;2023-06-26T00:04:33;99290.19;;;16.35;69.13
76337;BME280;65157;50.082;18.178;2023-06-26T00:07:00;99298.29;;;16.34;69.14
76337;BME280;65157;50.082;18.178;2023-06-26T00:09:26;99297.80;;;16.36;69.30
76337;BME280;65157;50.082;18.178;2023-06-26T00:11:53;99293.12;;;16.31;69.33
76337;BME280;65157;50.082;18.178;2023-06-26T00:14:20;99295.40;;;16.29;69.43
76337;BME280;65157;50.082;18.178;2023-06-26T00:16:47;99306.02;;;16.30;69.71
76337;BME280;65157;50.082;18.178;2023-06-26T00:19:13;99306.93;;;16.26;69.90
76337;BME280;65157;50.082;18.178;2023-06-26T00:21:40;99306.58;;;16.19;69.93
76337;BME280;65157;50.082;18.178;2023-06-26T00:24:07;99307.14;;;16.15;70.06
76337;BME280;65157;50.082;18.178;2023-06-26T00:26:34;99307.13;;;16.13;70.07
76337;BME280;65157;50.082;18.178;2023-06-26T00:29:00;99309.64;;;16.12;70.11
76337;BME280;65157;50.082;18.178;2023-06-26T00:31:27;99301.89;;;16.09;70.05
76337;BME280;65157;50.082;18.178;2023-06-26T00:33:54;99306.36;;;16.11;70.21
76337;BME280;65157;50.082;18.178;2023-06-26T00:36:21;99305.88;;;16.07;70.31
76337;BME280;65157;50.082;18.178;2023-06-26T00:38:47;99307.92;;;16.06;70.30
76337;BME280;65157;50.082;18.178;2023-06-26T00:41:17;99301.79;;;16.05;70.23
76337;BME280;65157;50.082;18.178;2023-06-26T00:43:43;99308.31;;;16.05;70.27
76337;BME280;65157;50.082;18.178;2023-06-26T00:46:12;99305.86;;;15.99;70.34
76337;BME280;65157;50.082;18.178;2023-06-26T00:48:43;99302.50;;;15.96;70.28
76337;BME280;65157;50.082;18.178;2023-06-26T00:51:11;99303.23;;;15.93;70.29
76337;BME280;65157;50.082;18.178;2023-06-26T00:53:39;99297.10;;;15.86;70.31
76337;BME280;65157;50.082;18.178;2023-06-26T00:56:08;99305.30;;;15.86;70.52
76337;BME280;65157;50.082;18.178;2023-06-26T00:58:35;99307.10;;;15.80;70.56
76337;BME280;65157;50.082;18.178;2023-06-26T01:01:01;99306.39;;;15.76;70.42
76337;BME280;65157;50.082;18.178;2023-06-26T01:03:28;99304.55;;;15.74;70.51
76337;BME280;65157;50.082;18.178;2023-06-26T01:05:58;99306.40;;;15.71;70.57
76337;BME280;65157;50.082;18.178;2023-06-26T01:08:26;99304.77;;;15.66;70.81
76337;BME280;65157;50.082;18.178;2023-06-26T01:10:56;99296.25;;;15.60;70.62
76337;BME280;65157;50.082;18.178;2023-06-26T01:13:23;99302.43;;;15.63;70.59
76337;BME280;65157;50.082;18.178;2023-06-26T01:15:51;99296.94;;;15.63;70.60
76337;BME280;65157;50.082;18.178;2023-06-26T01:18:18;99299.14;;;15.59;70.76
76337;BME280;65157;50.082;18.178;2023-06-26T01:20:45;99296.63;;;15.54;70.88
76337;BME280;65157;50.082;18.178;2023-06-26T01:23:29;99299.81;;;15.42;71.24
76337;BME280;65157;50.082;18.178;2023-06-26T01:26:19;99296.58;;;15.31;71.21
76337;BME280;65157;50.082;18.178;2023-06-26T01:28:46;99298.67;;;15.28;71.36
76337;BME280;65157;50.082;18.178;2023-06-26T01:31:14;99293.91;;;15.22;71.61
76337;BME280;65157;50.082;18.178;2023-06-26T01:33:41;99295.44;;;15.14;71.87
76337;BME280;65157;50.082;18.178;2023-06-26T01:36:09;99292.61;;;15.02;72.01
76337;BME280;65157;50.082;18.178;2023-06-26T01:38:36;99292.64;;;14.96;72.11
76337;BME280;65157;50.082;18.178;2023-06-26T01:41:04;99291.45;;;14.95;72.00
76337;BME280;65157;50.082;18.178;2023-06-26T01:49:36;99291.36;;;15.00;71.78
76337;BME280;65157;50.082;18.178;2023-06-26T01:54:49;99290.05;;;14.92;71.84
76337;BME280;65157;50.082;18.178;2023-06-26T01:57:17;99289.62;;;14.90;72.05
76337;BME280;65157;50.082;18.178;2023-06-26T01:59:46;99289.22;;;14.85;72.28
76337;BME280;65157;50.082;18.178;2023-06-26T02:02:13;99289.23;;;14.82;72.29
76337;BME280;65157;50.082;18.178;2023-06-26T02:04:40;99290.10;;;14.82;72.23
76337;BME280;65157;50.082;18.178;2023-06-26T02:07:07;99292.15;;;14.84;72.17
76337;BME280;65157;50.082;18.178;2023-06-26T02:09:34;99290.14;;;14.81;72.32
76337;BME280;65157;50.082;18.178;2023-06-26T02:12:00;99289.55;;;14.79;72.47
76337;BME280;65157;50.082;18.178;2023-06-26T02:14:27;99291.15;;;14.73;72.63
76337;BME280;65157;50.082;18.178;2023-06-26T02:16:54;99293.01;;;14.72;72.56
76337;BME280;65157;50.082;18.178;2023-06-26T02:19:20;99287.90;;;14.71;72.67
76337;BME280;65157;50.082;18.178;2023-06-26T02:21:48;99289.95;;;14.63;72.91
76337;BME280;65157;50.082;18.178;2023-06-26T02:24:15;99291.30;;;14.61;72.63
76337;BME280;65157;50.082;18.178;2023-06-26T02:26:41;99290.61;;;14.64;72.61
76337;BME280;65157;50.082;18.178;2023-06-26T02:29:09;99287.41;;;14.61;72.76
76337;BME280;65157;50.082;18.178;2023-06-26T02:31:35;99289.36;;;14.52;72.98
76337;BME280;65157;50.082;18.178;2023-06-26T02:34:02;99295.44;;;14.55;72.86
76337;BME280;65157;50.082;18.178;2023-06-26T02:36:30;99292.79;;;14.54;72.87
76337;BME280;65157;50.082;18.178;2023-06-26T02:38:56;99295.55;;;14.56;72.97
76337;BME280;65157;50.082;18.178;2023-06-26T02:41:24;99291.13;;;14.55;72.82
76337;BME280;65157;50.082;18.178;2023-06-26T02:43:50;99295.48;;;14.57;73.09
76337;BME280;65157;50.082;18.178;2023-06-26T02:46:18;99294.52;;;14.55;72.96
76337;BME280;65157;50.082;18.178;2023-06-26T02:48:45;99294.52;;;14.52;73.20
76337;BME280;65157;50.082;18.178;2023-06-26T02:51:11;99288.89;;;14.42;73.21
76337;BME280;65157;50.082;18.178;2023-06-26T02:53:38;99294.02;;;14.42;73.47
76337;BME280;65157;50.082;18.178;2023-06-26T02:56:05;99295.51;;;14.41;73.45
76337;BME280;65157;50.082;18.178;2023-06-26T02:58:31;99291.09;;;14.44;73.47
76337;BME280;65157;50.082;18.178;2023-06-26T03:00:58;99291.63;;;14.44;73.57
76337;BME280;65157;50.082;18.178;2023-06-26T03:03:24;99290.37;;;14.44;73.43
76337;BME280;65157;50.082;18.178;2023-06-26T03:05:51;99290.27;;;14.46;73.63
76337;BME280;65157;50.082;18.178;2023-06-26T03:08:18;99288.96;;;14.44;73.68
76337;BME280;65157;50.082;18.178;2023-06-26T03:10:44;99290.02;;;14.44;73.75
76337;BME280;65157;50.082;18.178;2023-06-26T03:13:12;99287.83;;;14.45;73.79
76337;BME280;65157;50.082;18.178;2023-06-26T03:15:39;99283.52;;;14.46;73.64
76337;BME280;65157;50.082;18.178;2023-06-26T03:18:06;99284.05;;;14.43;73.82
76337;BME280;65157;50.082;18.178;2023-06-26T03:20:32;99285.21;;;14.41;73.77
76337;BME280;65157;50.082;18.178;2023-06-26T03:22:59;99287.35;;;14.41;73.95
76337;BME280;65157;50.082;18.178;2023-06-26T03:25:26;99288.04;;;14.38;74.03
76337;BME280;65157;50.082;18.178;2023-06-26T03:27:52;99288.17;;;14.36;74.27
76337;BME280;65157;50.082;18.178;2023-06-26T03:30:19;99289.11;;;14.35;74.21
76337;BME280;65157;50.082;18.178;2023-06-26T03:32:46;99287.67;;;14.35;74.33
76337;BME280;65157;50.082;18.178;2023-06-26T03:35:13;99298.33;;;14.44;74.31
76337;BME280;65157;50.082;18.178;2023-06-26T03:37:40;99294.17;;;14.45;74.40
76337;BME280;65157;50.082;18.178;2023-06-26T03:40:07;99295.99;;;14.45;74.47
76337;BME280;65157;50.082;18.178;2023-06-26T03:42:34;99294.56;;;14.48;74.50
76337;BME280;65157;50.082;18.178;2023-06-26T03:45:01;99294.69;;;14.49;74.55
76337;BME280;65157;50.082;18.178;2023-06-26T03:47:28;99293.27;;;14.52;74.40
76337;BME280;65157;50.082;18.178;2023-06-26T03:49:54;99295.37;;;14.56;74.42
76337;BME280;65157;50.082;18.178;2023-06-26T03:52:21;99294.86;;;14.61;74.39
76337;BME280;65157;50.082;18.178;2023-06-26T03:54:48;99294.61;;;14.69;74.36
76337;BME280;65157;50.082;18.178;2023-06-26T03:57:14;99296.05;;;14.75;74.27
76337;BME280;65157;50.082;18.178;2023-06-26T03:59:41;99289.91;;;14.79;74.03
76337;BME280;65157;50.082;18.178;2023-06-26T04:02:07;99293.79;;;14.89;74.00
76337;BME280;65157;50.082;18.178;2023-06-26T04:04:34;99286.59;;;14.90;74.12
76337;BME280;65157;50.082;18.178;2023-06-26T04:07:01;99298.89;;;14.99;74.23
76337;BME280;65157;50.082;18.178;2023-06-26T04:09:27;99297.58;;;15.05;74.01
76337;BME280;65157;50.082;18.178;2023-06-26T04:11:54;99296.77;;;15.13;73.95
76337;BME280;65157;50.082;18.178;2023-06-26T04:14:21;99290.70;;;15.19;73.96
76337;BME280;65157;50.082;18.178;2023-06-26T04:16:47;99283.13;;;15.21;73.79
76337;BME280;65157;50.082;18.178;2023-06-26T04:19:14;99289.38;;;15.32;73.67
76337;BME280;65157;50.082;18.178;2023-06-26T04:21:41;99279.73;;;15.33;73.57
76337;BME280;65157;50.082;18.178;2023-06-26T04:24:08;99288.58;;;15.42;73.40
76337;BME280;65157;50.082;18.178;2023-06-26T04:26:34;99285.76;;;15.45;73.25
76337;BME280;65157;50.082;18.178;2023-06-26T04:29:01;99289.02;;;15.50;73.24
76337;BME280;65157;50.082;18.178;2023-06-26T04:31:28;99289.14;;;15.54;73.40
76337;BME280;65157;50.082;18.178;2023-06-26T04:33:54;99288.21;;;15.57;73.36
76337;BME280;65157;50.082;18.178;2023-06-26T04:36:21;99280.23;;;15.62;73.19
76337;BME280;65157;50.082;18.178;2023-06-26T04:38:49;99276.67;;;15.74;73.03
76337;BME280;65157;50.082;18.178;2023-06-26T04:41:16;99279.87;;;15.85;72.89
76337;BME280;65157;50.082;18.178;2023-06-26T04:43:43;99280.62;;;15.96;72.98
76337;BME280;65157;50.082;18.178;2023-06-26T04:46:09;99279.96;;;16.06;73.08
76337;BME280;65157;50.082;18.178;2023-06-26T04:48:36;99281.40;;;16.14;72.63
76337;BME280;65157;50.082;18.178;2023-06-26T04:51:02;99270.98;;;16.16;72.43
76337;BME280;65157;50.082;18.178;2023-06-26T04:53:29;99277.79;;;16.23;72.21
76337;BME280;65157;50.082;18.178;2023-06-26T04:55:56;99278.26;;;16.30;72.23
76337;BME280;65157;50.082;18.178;2023-06-26T04:58:22;99277.75;;;16.40;72.33
76337;BME280;65157;50.082;18.178;2023-06-26T05:00:49;99279.88;;;16.48;71.84
76337;BME280;65157;50.082;18.178;2023-06-26T05:03:17;99281.00;;;16.56;71.85
76337;BME280;65157;50.082;18.178;2023-06-26T05:05:44;99279.73;;;16.64;71.78
76337;BME280;65157;50.082;18.178;2023-06-26T05:08:18;99277.98;;;16.77;71.53
76337;BME280;65157;50.082;18.178;2023-06-26T05:10:45;99278.23;;;16.89;71.66
76337;BME280;65157;50.082;18.178;2023-06-26T05:13:12;99280.04;;;17.04;71.67
76337;BME280;65157;50.082;18.178;2023-06-26T05:15:39;99280.23;;;17.22;71.66
76337;BME280;65157;50.082;18.178;2023-06-26T05:18:06;99279.86;;;17.40;71.25
76337;BME280;65157;50.082;18.178;2023-06-26T05:20:35;99282.21;;;17.55;70.82
76337;BME280;65157;50.082;18.178;2023-06-26T05:23:02;99263.66;;;17.60;69.88
76337;BME280;65157;50.082;18.178;2023-06-26T05:25:30;99276.39;;;17.75;69.86
76337;BME280;65157;50.082;18.178;2023-06-26T05:27:58;99277.53;;;17.86;70.14
76337;BME280;65157;50.082;18.178;2023-06-26T05:30:26;99277.87;;;18.04;69.49
76337;BME280;65157;50.082;18.178;2023-06-26T05:32:54;99276.70;;;18.20;69.42
76337;BME280;65157;50.082;18.178;2023-06-26T05:35:21;99273.68;;;18.34;69.20
76337;BME280;65157;50.082;18.178;2023-06-26T05:37:50;99268.55;;;18.48;68.54
76337;BME280;65157;50.082;18.178;2023-06-26T05:40:17;99274.67;;;18.62;68.34
76337;BME280;65157;50.082;18.178;2023-06-26T05:42:47;99260.21;;;18.69;68.62
76337;BME280;65157;50.082;18.178;2023-06-26T05:45:13;99268.65;;;18.89;68.60
76337;BME280;65157;50.082;18.178;2023-06-26T05:47:41;99270.41;;;19.06;68.37
76337;BME280;65157;50.082;18.178;2023-06-26T05:50:08;99270.85;;;19.26;68.73
76337;BME280;65157;50.082;18.178;2023-06-26T05:52:36;99270.72;;;19.41;68.26
76337;BME280;65157;50.082;18.178;2023-06-26T05:55:03;99268.38;;;19.57;67.80
76337;BME280;65157;50.082;18.178;2023-06-26T05:57:31;99265.67;;;19.71;67.60
76337;BME280;65157;50.082;18.178;2023-06-26T05:59:58;99263.15;;;19.94;67.43
76337;BME280;65157;50.082;18.178;2023-06-26T06:02:24;99262.91;;;20.16;67.08
76337;BME280;65157;50.082;18.178;2023-06-26T06:04:51;99266.13;;;20.36;67.06
76337;BME280;65157;50.082;18.178;2023-06-26T06:07:19;99259.70;;;20.58;66.92
76337;BME280;65157;50.082;18.178;2023-06-26T06:09:45;99258.69;;;20.80;65.37
76337;BME280;65157;50.082;18.178;2023-06-26T06:12:12;99260.21;;;21.00;64.56
76337;BME280;65157;50.082;18.178;2023-06-26T06:14:39;99261.47;;;21.21;64.44
76337;BME280;65157;50.082;18.178;2023-06-26T06:17:06;99261.35;;;21.43;63.83
76337;BME280;65157;50.082;18.178;2023-06-26T06:19:33;99259.87;;;21.65;63.52
76337;BME280;65157;50.082;18.178;2023-06-26T06:21:59;99258.54;;;21.85;63.19
76337;BME280;65157;50.082;18.178;2023-06-26T06:24:28;99256.70;;;22.03;62.07
76337;BME280;65157;50.082;18.178;2023-06-26T06:26:55;99258.96;;;22.15;61.89
76337;BME280;65157;50.082;18.178;2023-06-26T06:29:22;99256.26;;;22.33;61.61
76337;BME280;65157;50.082;18.178;2023-06-26T06:31:48;99254.06;;;22.51;61.02
76337;BME280;65157;50.082;18.178;2023-06-26T06:34:15;99249.39;;;22.65;60.24
76337;BME280;65157;50.082;18.178;2023-06-26T06:36:42;99250.14;;;22.82;60.52
76337;BME280;65157;50.082;18.178;2023-06-26T06:39:11;99250.83;;;22.98;60.04
76337;BME280;65157;50.082;18.178;2023-06-26T06:41:38;99250.52;;;23.15;60.19
76337;BME280;65157;50.082;18.178;2023-06-26T06:44:05;99254.84;;;23.36;59.88
76337;BME280;65157;50.082;18.178;2023-06-26T06:46:31;99252.14;;;23.54;59.18
76337;BME280;65157;50.082;18.178;2023-06-26T06:48:58;99248.73;;;23.71;58.59
76337;BME280;65157;50.082;18.178;2023-06-26T06:51:25;99248.77;;;23.80;58.15
76337;BME280;65157;50.082;18.178;2023-06-26T06:53:52;99245.73;;;23.94;59.06
76337;BME280;65157;50.082;18.178;2023-06-26T06:56:19;99245.58;;;24.14;58.29
76337;BME280;65157;50.082;18.178;2023-06-26T06:58:46;99241.42;;;24.29;57.03
76337;BME280;65157;50.082;18.178;2023-06-26T07:01:14;99227.36;;;24.31;56.47
76337;BME280;65157;50.082;18.178;2023-06-26T07:03:41;99237.51;;;24.47;56.01
76337;BME280;65157;50.082;18.178;2023-06-26T07:06:08;99239.13;;;24.55;55.81
76337;BME280;65157;50.082;18.178;2023-06-26T07:08:37;99235.00;;;24.68;55.86
76337;BME280;65157;50.082;18.178;2023-06-26T07:11:04;99234.58;;;24.81;55.42
76337;BME280;65157;50.082;18.178;2023-06-26T07:13:32;99232.98;;;24.86;55.44
76337;BME280;65157;50.082;18.178;2023-06-26T07:15:59;99236.23;;;25.04;55.34
76337;BME280;65157;50.082;18.178;2023-06-26T07:18:26;99236.44;;;25.21;54.74
76337;BME280;65157;50.082;18.178;2023-06-26T07:20:53;99234.15;;;25.33;54.39
76337;BME280;65157;50.082;18.178;2023-06-26T07:23:19;99231.19;;;25.47;54.10
76337;BME280;65157;50.082;18.178;2023-06-26T07:25:46;99228.83;;;25.61;53.76
76337;BME280;65157;50.082;18.178;2023-06-26T07:28:13;99223.58;;;25.68;53.45
76337;BME280;65157;50.082;18.178;2023-06-26T07:30:40;99228.32;;;25.85;53.61
76337;BME280;65157;50.082;18.178;2023-06-26T07:33:07;99223.83;;;25.96;52.97
76337;BME280;65157;50.082;18.178;2023-06-26T07:35:34;99231.48;;;26.06;51.67
76337;BME280;65157;50.082;18.178;2023-06-26T07:38:01;99231.70;;;26.05;51.45
76337;BME280;65157;50.082;18.178;2023-06-26T07:40:27;99230.51;;;26.10;51.83
76337;BME280;65157;50.082;18.178;2023-06-26T07:42:54;99228.50;;;26.22;51.69
76337;BME280;65157;50.082;18.178;2023-06-26T07:45:22;99233.21;;;26.32;50.88
76337;BME280;65157;50.082;18.178;2023-06-26T07:47:50;99230.79;;;26.34;50.15
76337;BME280;65157;50.082;18.178;2023-06-26T07:50:17;99233.61;;;26.40;50.04
76337;BME280;65157;50.082;18.178;2023-06-26T07:52:44;99230.36;;;26.52;49.66
76337;BME280;65157;50.082;18.178;2023-06-26T07:55:11;99228.05;;;26.64;49.19
76337;BME280;65157;50.082;18.178;2023-06-26T07:57:38;99224.65;;;26.69;48.91
76337;BME280;65157;50.082;18.178;2023-06-26T08:00:05;99226.25;;;26.79;48.83
76337;BME280;65157;50.082;18.178;2023-06-26T08:02:32;99225.73;;;26.96;48.60
76337;BME280;65157;50.082;18.178;2023-06-26T08:04:59;99226.02;;;27.14;48.67
76337;BME280;65157;50.082;18.178;2023-06-26T08:07:28;99224.48;;;27.34;48.56
76337;BME280;65157;50.082;18.178;2023-06-26T08:09:55;99220.84;;;27.47;46.82
76337;BME280;65157;50.082;18.178;2023-06-26T08:12:21;99215.85;;;27.50;47.45
76337;BME280;65157;50.082;18.178;2023-06-26T08:14:48;99220.64;;;27.59;47.02
76337;BME280;65157;50.082;18.178;2023-06-26T08:17:15;99222.16;;;27.66;46.51
76337;BME280;65157;50.082;18.178;2023-06-26T08:19:42;99221.21;;;27.77;47.04
76337;BME280;65157;50.082;18.178;2023-06-26T08:22:08;99218.63;;;27.87;46.15
76337;BME280;65157;50.082;18.178;2023-06-26T08:24:35;99217.73;;;27.95;46.65
76337;BME280;65157;50.082;18.178;2023-06-26T08:27:01;99217.39;;;28.09;46.11
76337;BME280;65157;50.082;18.178;2023-06-26T08:29:29;99211.31;;;28.13;45.49
76337;BME280;65157;50.082;18.178;2023-06-26T08:31:55;99213.02;;;28.23;45.45
76337;BME280;65157;50.082;18.178;2023-06-26T08:34:22;99210.48;;;28.32;45.61
76337;BME280;65157;50.082;18.178;2023-06-26T08:36:49;99207.60;;;28.43;45.69
76337;BME280;65157;50.082;18.178;2023-06-26T08:39:16;99215.55;;;28.52;43.62
76337;BME280;65157;50.082;18.178;2023-06-26T08:41:42;99213.06;;;28.53;44.08
76337;BME280;65157;50.082;18.178;2023-06-26T08:44:09;99209.85;;;28.66;44.49
76337;BME280;65157;50.082;18.178;2023-06-26T08:46:36;99209.31;;;28.78;44.52
76337;BME280;65157;50.082;18.178;2023-06-26T08:49:25;99212.36;;;28.74;45.00
76337;BME280;65157;50.082;18.178;2023-06-26T08:51:59;99212.16;;;28.86;44.89
76337;BME280;65157;50.082;18.178;2023-06-26T08:54:36;99205.23;;;28.81;44.41
76337;BME280;65157;50.082;18.178;2023-06-26T08:57:04;99208.60;;;28.93;44.38
76337;BME280;65157;50.082;18.178;2023-06-26T08:59:50;99207.30;;;29.14;44.65
76337;BME280;65157;50.082;18.178;2023-06-26T09:02:17;99206.20;;;29.31;43.23
76337;BME280;65157;50.082;18.178;2023-06-26T09:04:45;99200.68;;;29.38;43.65
76337;BME280;65157;50.082;18.178;2023-06-26T09:07:11;99200.63;;;29.39;42.53
76337;BME280;65157;50.082;18.178;2023-06-26T09:09:38;99196.98;;;29.45;42.91
76337;BME280;65157;50.082;18.178;2023-06-26T09:12:05;99196.41;;;29.38;43.19
76337;BME280;65157;50.082;18.178;2023-06-26T09:14:33;99201.20;;;29.32;41.97
76337;BME280;65157;50.082;18.178;2023-06-26T09:17:00;99199.29;;;28.98;41.11
76337;BME280;65157;50.082;18.178;2023-06-26T09:19:27;99198.70;;;28.90;41.75
76337;BME280;65157;50.082;18.178;2023-06-26T09:21:54;99196.77;;;28.86;41.36
76337;BME280;65157;50.082;18.178;2023-06-26T09:24:22;99191.73;;;28.92;41.83
76337;BME280;65157;50.082;18.178;2023-06-26T09:26:48;99198.01;;;29.10;41.43
76337;BME280;65157;50.082;18.178;2023-06-26T09:29:17;99194.81;;;29.26;42.13
76337;BME280;65157;50.082;18.178;2023-06-26T09:31:44;99195.23;;;29.35;41.06
76337;BME280;65157;50.082;18.178;2023-06-26T09:34:11;99185.79;;;29.37;42.23
76337;BME280;65157;50.082;18.178;2023-06-26T09:36:39;99185.20;;;29.48;42.00
76337;BME280;65157;50.082;18.178;2023-06-26T09:39:08;99187.96;;;29.64;42.33
76337;BME280;65157;50.082;18.178;2023-06-26T09:41:36;99173.10;;;29.75;42.27
76337;BME280;65157;50.082;18.178;2023-06-26T09:44:05;99186.13;;;30.01;40.98
76337;BME280;65157;50.082;18.178;2023-06-26T09:46:32;99172.23;;;30.19;39.87
76337;BME280;65157;50.082;18.178;2023-06-26T09:49:07;99172.54;;;30.38;40.79
76337;BME280;65157;50.082;18.178;2023-06-26T09:51:35;99176.44;;;30.53;39.93
76337;BME280;65157;50.082;18.178;2023-06-26T09:54:04;99170.28;;;30.40;39.29
76337;BME280;65157;50.082;18.178;2023-06-26T09:56:32;99173.18;;;30.42;39.83
76337;BME280;65157;50.082;18.178;2023-06-26T09:59:01;99170.88;;;30.40;39.71
76337;BME280;65157;50.082;18.178;2023-06-26T10:01:29;99166.95;;;30.33;39.53
76337;BME280;65157;50.082;18.178;2023-06-26T10:03:57;99173.86;;;30.27;39.54
76337;BME280;65157;50.082;18.178;2023-06-26T10:06:27;99171.76;;;30.24;40.01
76337;BME280;65157;50.082;18.178;2023-06-26T10:08:56;99167.19;;;30.17;40.14
76337;BME280;65157;50.082;18.178;2023-06-26T10:11:30;99167.00;;;30.26;39.93
76337;BME280;65157;50.082;18.178;2023-06-26T10:14:01;99160.83;;;30.34;39.38
76337;BME280;65157;50.082;18.178;2023-06-26T10:16:31;99160.05;;;30.41;39.20
76337;BME280;65157;50.082;18.178;2023-06-26T10:19:03;99156.62;;;30.49;39.89
76337;BME280;65157;50.082;18.178;2023-06-26T10:21:31;99153.90;;;30.50;39.25
76337;BME280;65157;50.082;18.178;2023-06-26T10:24:00;99153.90;;;30.37;38.41
76337;BME280;65157;50.082;18.178;2023-06-26T10:26:30;99150.17;;;30.05;39.39
76337;BME280;65157;50.082;18.178;2023-06-26T10:29:00;99151.25;;;29.89;38.46
76337;BME280;65157;50.082;18.178;2023-06-26T10:31:28;99152.95;;;29.74;38.32
76337;BME280;65157;50.082;18.178;2023-06-26T10:33:55;99145.95;;;29.88;39.30
76337;BME280;65157;50.082;18.178;2023-06-26T10:36:30;99141.02;;;30.12;38.33
76337;BME280;65157;50.082;18.178;2023-06-26T10:39:04;99138.39;;;30.27;38.02
76337;BME280;65157;50.082;18.178;2023-06-26T10:41:40;99134.86;;;30.31;37.34
76337;BME280;65157;50.082;18.178;2023-06-26T10:44:11;99140.49;;;30.37;38.81
76337;BME280;65157;50.082;18.178;2023-06-26T10:46:55;99134.45;;;30.47;38.14
76337;BME280;65157;50.082;18.178;2023-06-26T10:49:30;99123.29;;;30.50;37.91
76337;BME280;65157;50.082;18.178;2023-06-26T10:52:01;99128.10;;;30.55;37.54
76337;BME280;65157;50.082;18.178;2023-06-26T10:54:32;99120.53;;;30.59;36.86
76337;BME280;65157;50.082;18.178;2023-06-26T10:56:59;99123.73;;;30.59;37.37
76337;BME280;65157;50.082;18.178;2023-06-26T10:59:27;99119.55;;;30.56;37.80
76337;BME280;65157;50.082;18.178;2023-06-26T11:02:02;99119.55;;;30.62;37.08
76337;BME280;65157;50.082;18.178;2023-06-26T11:07:25;99114.30;;;30.43;37.16
76337;BME280;65157;50.082;18.178;2023-06-26T11:10:00;99113.20;;;30.46;36.97
76337;BME280;65157;50.082;18.178;2023-06-26T11:12:41;99114.23;;;30.55;37.92
76337;BME280;65157;50.082;18.178;2023-06-26T11:15:12;99117.73;;;30.54;36.67
76337;BME280;65157;50.082;18.178;2023-06-26T11:17:41;99118.27;;;30.28;36.67
76337;BME280;65157;50.082;18.178;2023-06-26T11:20:11;99114.40;;;30.07;36.82
76337;BME280;65157;50.082;18.178;2023-06-26T11:22:39;99115.41;;;30.06;37.45
76337;BME280;65157;50.082;18.178;2023-06-26T11:25:08;99116.67;;;30.10;36.98
76337;BME280;65157;50.082;18.178;2023-06-26T11:27:41;99114.89;;;30.12;35.66
76337;BME280;65157;50.082;18.178;2023-06-26T11:30:22;99112.95;;;29.95;36.30
76337;BME280;65157;50.082;18.178;2023-06-26T11:32:49;99111.02;;;30.02;37.29
76337;BME280;65157;50.082;18.178;2023-06-26T11:35:23;99107.23;;;30.16;38.46
76337;BME280;65157;50.082;18.178;2023-06-26T11:37:49;99101.16;;;30.38;37.43
76337;BME280;65157;50.082;18.178;2023-06-26T11:40:17;99103.03;;;30.59;37.69
76337;BME280;65157;50.082;18.178;2023-06-26T11:42:44;99099.11;;;30.76;35.84
76337;BME280;65157;50.082;18.178;2023-06-26T11:45:12;99094.27;;;30.92;36.26
76337;BME280;65157;50.082;18.178;2023-06-26T11:47:40;99084.57;;;31.00;35.04
76337;BME280;65157;50.082;18.178;2023-06-26T11:50:15;99095.41;;;31.12;35.72
76337;BME280;65157;50.082;18.178;2023-06-26T11:52:44;99092.98;;;31.26;34.43
76337;BME280;65157;50.082;18.178;2023-06-26T11:55:11;99089.10;;;31.07;34.50
76337;BME280;65157;50.082;18.178;2023-06-26T11:57:39;99081.73;;;30.85;35.44
76337;BME280;65157;50.082;18.178;2023-06-26T12:00:13;99086.33;;;30.67;35.05
76337;BME280;65157;50.082;18.178;2023-06-26T12:02:40;99080.98;;;30.57;36.22
76337;BME280;65157;50.082;18.178;2023-06-26T12:05:07;99079.88;;;30.63;35.31
76337;BME280;65157;50.082;18.178;2023-06-26T12:07:34;99079.02;;;30.64;35.11
76337;BME280;65157;50.082;18.178;2023-06-26T12:10:01;99078.13;;;30.72;35.89
76337;BME280;65157;50.082;18.178;2023-06-26T12:12:30;99075.23;;;30.87;36.89
76337;BME280;65157;50.082;18.178;2023-06-26T12:15:00;99071.80;;;31.07;36.35
76337;BME280;65157;50.082;18.178;2023-06-26T12:17:27;99071.44;;;31.24;34.36
76337;BME280;65157;50.082;18.178;2023-06-26T12:19:53;99067.88;;;31.05;33.92
76337;BME280;65157;50.082;18.178;2023-06-26T12:22:21;99070.27;;;30.82;35.32
76337;BME280;65157;50.082;18.178;2023-06-26T12:24:49;99060.70;;;30.69;35.48
76337;BME280;65157;50.082;18.178;2023-06-26T12:27:18;99065.80;;;30.72;34.26
76337;BME280;65157;50.082;18.178;2023-06-26T12:29:54;99072.82;;;30.51;33.72
76337;BME280;65157;50.082;18.178;2023-06-26T12:32:24;99071.93;;;30.57;34.78
76337;BME280;65157;50.082;18.178;2023-06-26T12:34:52;99066.88;;;30.77;34.74
76337;BME280;65157;50.082;18.178;2023-06-26T12:37:19;99066.39;;;30.74;32.99
76337;BME280;65157;50.082;18.178;2023-06-26T12:39:58;99068.02;;;30.62;33.32
76337;BME280;65157;50.082;18.178;2023-06-26T12:42:32;99068.27;;;30.60;34.01
76337;BME280;65157;50.082;18.178;2023-06-26T12:44:59;99070.59;;;30.70;34.78
76337;BME280;65157;50.082;18.178;2023-06-26T12:47:28;99066.52;;;30.70;33.87
76337;BME280;65157;50.082;18.178;2023-06-26T12:49:55;99064.98;;;30.79;34.69
76337;BME280;65157;50.082;18.178;2023-06-26T12:52:22;99062.91;;;30.77;33.85
76337;BME280;65157;50.082;18.178;2023-06-26T12:54:53;99059.67;;;30.72;33.65
76337;BME280;65157;50.082;18.178;2023-06-26T12:57:22;99058.16;;;30.55;33.03
76337;BME280;65157;50.082;18.178;2023-06-26T12:59:50;99060.12;;;30.48;34.02
76337;BME280;65157;50.082;18.178;2023-06-26T13:02:18;99058.30;;;30.55;33.81
76337;BME280;65157;50.082;18.178;2023-06-26T13:04:45;99056.45;;;30.57;34.72
76337;BME280;65157;50.082;18.178;2023-06-26T13:07:13;99053.37;;;30.54;34.72